sensor_id;sensor_type;location;lat;lon;timestamp;P1;durP1;ratioP1;P2;durP2;ratioP2
67274;SDS011;55463;52.324;5.122;2023-03-24T00:01:50;9.38;;;3.45;;
67274;SDS011;55463;52.324;5.122;2023-03-24T00:04:16;11.25;;;3.50;;
67274;SDS011;55463;52.324;5.122;2023-03-24T00:06:42;9.98;;;4.20;;
67274;SDS011;55463;52.324;5.122;2023-03-24T00:09:08;14.07;;;4.10;;
67274;SDS011;55463;52.324;5.122;2023-03-24T00:11:34;11.02;;;4.25;;
67274;SDS011;55463;52.324;5.122;2023-03-24T00:14:00;14.15;;;4.50;;
67274;SDS011;55463;52.324;5.122;2023-03-24T00:16:27;10.13;;;4.20;;
67274;SDS011;55463;52.324;5.122;2023-03-24T00:18:52;13.98;;;4.72;;
67274;SDS011;55463;52.324;5.122;2023-03-24T00:21:18;12.82;;;4.50;;
67274;SDS011;55463;52.324;5.122;2023-03-24T00:23:48;11.50;;;4.23;;
67274;SDS011;55463;52.324;5.122;2023-03-24T00:26:14;7.25;;;4.07;;
67274;SDS011;55463;52.324;5.122;2023-03-24T00:28:42;12.95;;;4.30;;
67274;SDS011;55463;52.324;5.122;2023-03-24T00:31:10;10.57;;;4.35;;
67274;SDS011;55463;52.324;5.122;2023-03-24T00:33:47;10.32;;;4.20;;
67274;SDS011;55463;52.324;5.122;2023-03-24T00:36:15;11.35;;;4.15;;
67274;SDS011;55463;52.324;5.122;2023-03-24T00:38:43;7.75;;;4.10;;
67274;SDS011;55463;52.324;5.122;2023-03-24T00:41:09;13.68;;;4.30;;
67274;SDS011;55463;52.324;5.122;2023-03-24T00:43:35;10.95;;;4.32;;
67274;SDS011;55463;52.324;5.122;2023-03-24T00:46:03;10.30;;;4.47;;
67274;SDS011;55463;52.324;5.122;2023-03-24T00:48:32;9.25;;;4.43;;
67274;SDS011;55463;52.324;5.122;2023-03-24T00:50:59;9.18;;;4.35;;
67274;SDS011;55463;52.324;5.122;2023-03-24T00:53:26;9.77;;;4.30;;
67274;SDS011;55463;52.324;5.122;2023-03-24T00:55:53;10.32;;;4.20;;
67274;SDS011;55463;52.324;5.122;2023-03-24T00:58:19;8.95;;;4.05;;
67274;SDS011;55463;52.324;5.122;2023-03-24T01:00:49;9.80;;;4.22;;
67274;SDS011;55463;52.324;5.122;2023-03-24T01:03:17;7.20;;;3.97;;
67274;SDS011;55463;52.324;5.122;2023-03-24T01:05:46;8.02;;;3.83;;
67274;SDS011;55463;52.324;5.122;2023-03-24T01:08:12;8.57;;;4.07;;
67274;SDS011;55463;52.324;5.122;2023-03-24T01:10:39;6.93;;;4.28;;
67274;SDS011;55463;52.324;5.122;2023-03-24T01:13:18;7.47;;;4.05;;
67274;SDS011;55463;52.324;5.122;2023-03-24T01:15:48;5.97;;;3.47;;
67274;SDS011;55463;52.324;5.122;2023-03-24T01:18:15;9.00;;;3.88;;
67274;SDS011;55463;52.324;5.122;2023-03-24T01:20:42;10.85;;;3.95;;
67274;SDS011;55463;52.324;5.122;2023-03-24T01:23:14;8.20;;;3.47;;
67274;SDS011;55463;52.324;5.122;2023-03-24T01:25:44;8.68;;;4.07;;
67274;SDS011;55463;52.324;5.122;2023-03-24T01:28:12;7.65;;;3.67;;
67274;SDS011;55463;52.324;5.122;2023-03-24T01:30:39;6.72;;;3.88;;
67274;SDS011;55463;52.324;5.122;2023-03-24T01:33:04;7.82;;;4.30;;
67274;SDS011;55463;52.324;5.122;2023-03-24T01:35:30;7.60;;;3.72;;
67274;SDS011;55463;52.324;5.122;2023-03-24T01:37:56;9.90;;;4.20;;
67274;SDS011;55463;52.324;5.122;2023-03-24T01:40:27;8.80;;;3.80;;
67274;SDS011;55463;52.324;5.122;2023-03-24T01:42:54;10.50;;;4.10;;
67274;SDS011;55463;52.324;5.122;2023-03-24T01:50:57;7.78;;;3.65;;
67274;SDS011;55463;52.324;5.122;2023-03-24T01:53:26;8.10;;;3.88;;
67274;SDS011;55463;52.324;5.122;2023-03-24T01:55:54;7.20;;;4.15;;
67274;SDS011;55463;52.324;5.122;2023-03-24T01:58:20;7.55;;;4.03;;
67274;SDS011;55463;52.324;5.122;2023-03-24T02:00:45;8.02;;;3.90;;
67274;SDS011;55463;52.324;5.122;2023-03-24T02:03:13;7.03;;;3.45;;
67274;SDS011;55463;52.324;5.122;2023-03-24T02:05:42;6.97;;;4.00;;
67274;SDS011;55463;52.324;5.122;2023-03-24T02:08:15;7.00;;;3.72;;
67274;SDS011;55463;52.324;5.122;2023-03-24T02:10:42;5.50;;;3.50;;
67274;SDS011;55463;52.324;5.122;2023-03-24T02:13:08;7.20;;;3.72;;
67274;SDS011;55463;52.324;5.122;2023-03-24T02:15:37;7.70;;;3.50;;
67274;SDS011;55463;52.324;5.122;2023-03-24T02:18:24;6.57;;;3.58;;
67274;SDS011;55463;52.324;5.122;2023-03-24T02:37:00;6.30;;;1.83;;
67274;SDS011;55463;52.324;5.122;2023-03-24T02:42:37;5.68;;;1.67;;
67274;SDS011;55463;52.324;5.122;2023-03-24T02:45:26;5.90;;;1.55;;
67274;SDS011;55463;52.324;5.122;2023-03-24T02:48:13;4.20;;;1.58;;
67274;SDS011;55463;52.324;5.122;2023-03-24T02:51:19;2.33;;;1.50;;
67274;SDS011;55463;52.324;5.122;2023-03-24T02:59:29;5.63;;;1.92;;
67274;SDS011;55463;52.324;5.122;2023-03-24T03:02:18;6.95;;;1.77;;
67274;SDS011;55463;52.324;5.122;2023-03-24T03:12:47;11.18;;;2.47;;
67274;SDS011;55463;52.324;5.122;2023-03-24T03:15:35;5.45;;;1.90;;
67274;SDS011;55463;52.324;5.122;2023-03-24T03:18:08;6.35;;;1.70;;
67274;SDS011;55463;52.324;5.122;2023-03-24T03:20:41;6.18;;;1.60;;
67274;SDS011;55463;52.324;5.122;2023-03-24T03:23:14;6.97;;;1.65;;
67274;SDS011;55463;52.324;5.122;2023-03-24T03:25:43;8.60;;;2.10;;
67274;SDS011;55463;52.324;5.122;2023-03-24T03:28:15;5.68;;;2.17;;
67274;SDS011;55463;52.324;5.122;2023-03-24T03:30:46;10.38;;;1.98;;
67274;SDS011;55463;52.324;5.122;2023-03-24T03:33:23;9.57;;;2.13;;
67274;SDS011;55463;52.324;5.122;2023-03-24T03:38:39;7.63;;;1.90;;
67274;SDS011;55463;52.324;5.122;2023-03-24T03:41:11;9.93;;;2.15;;
67274;SDS011;55463;52.324;5.122;2023-03-24T03:43:39;5.00;;;1.92;;
67274;SDS011;55463;52.324;5.122;2023-03-24T03:46:05;5.97;;;2.15;;
67274;SDS011;55463;52.324;5.122;2023-03-24T03:48:31;9.43;;;2.42;;
67274;SDS011;55463;52.324;5.122;2023-03-24T03:50:58;10.80;;;2.30;;
67274;SDS011;55463;52.324;5.122;2023-03-24T03:53:25;8.75;;;2.03;;
67274;SDS011;55463;52.324;5.122;2023-03-24T03:55:55;9.45;;;1.80;;
67274;SDS011;55463;52.324;5.122;2023-03-24T03:58:21;12.07;;;2.30;;
67274;SDS011;55463;52.324;5.122;2023-03-24T04:00:47;7.22;;;2.47;;
67274;SDS011;55463;52.324;5.122;2023-03-24T04:05:52;10.65;;;2.33;;
67274;SDS011;55463;52.324;5.122;2023-03-24T04:08:21;12.00;;;2.20;;
67274;SDS011;55463;52.324;5.122;2023-03-24T04:18:45;8.93;;;2.00;;
67274;SDS011;55463;52.324;5.122;2023-03-24T04:34:18;15.95;;;2.38;;
67274;SDS011;55463;52.324;5.122;2023-03-24T04:36:55;17.30;;;2.63;;
67274;SDS011;55463;52.324;5.122;2023-03-24T04:39:28;13.18;;;3.53;;
67274;SDS011;55463;52.324;5.122;2023-03-24T04:41:59;16.60;;;4.00;;
67274;SDS011;55463;52.324;5.122;2023-03-24T04:44:26;15.98;;;2.97;;
67274;SDS011;55463;52.324;5.122;2023-03-24T04:46:55;22.02;;;2.90;;
67274;SDS011;55463;52.324;5.122;2023-03-24T04:49:21;19.88;;;3.85;;
67274;SDS011;55463;52.324;5.122;2023-03-24T04:51:51;14.77;;;3.65;;
67274;SDS011;55463;52.324;5.122;2023-03-24T04:54:17;18.10;;;2.63;;
67274;SDS011;55463;52.324;5.122;2023-03-24T04:56:45;15.15;;;3.10;;
67274;SDS011;55463;52.324;5.122;2023-03-24T04:59:14;15.50;;;3.10;;
67274;SDS011;55463;52.324;5.122;2023-03-24T05:01:40;18.48;;;3.00;;
67274;SDS011;55463;52.324;5.122;2023-03-24T05:04:14;23.20;;;3.42;;
67274;SDS011;55463;52.324;5.122;2023-03-24T05:06:44;15.05;;;2.80;;
67274;SDS011;55463;52.324;5.122;2023-03-24T05:09:16;24.50;;;3.70;;
67274;SDS011;55463;52.324;5.122;2023-03-24T05:11:43;15.75;;;3.42;;
67274;SDS011;55463;52.324;5.122;2023-03-24T05:14:10;14.77;;;3.50;;
67274;SDS011;55463;52.324;5.122;2023-03-24T05:16:35;25.63;;;4.47;;
67274;SDS011;55463;52.324;5.122;2023-03-24T05:19:01;25.35;;;3.38;;
67274;SDS011;55463;52.324;5.122;2023-03-24T05:21:27;21.83;;;3.47;;
67274;SDS011;55463;52.324;5.122;2023-03-24T05:23:52;27.02;;;3.45;;
67274;SDS011;55463;52.324;5.122;2023-03-24T05:26:18;23.25;;;4.03;;
67274;SDS011;55463;52.324;5.122;2023-03-24T05:28:43;26.30;;;4.00;;
67274;SDS011;55463;52.324;5.122;2023-03-24T05:31:09;23.77;;;3.70;;
67274;SDS011;55463;52.324;5.122;2023-03-24T05:33:34;25.85;;;3.63;;
67274;SDS011;55463;52.324;5.122;2023-03-24T05:36:00;22.33;;;3.55;;
67274;SDS011;55463;52.324;5.122;2023-03-24T05:38:25;26.15;;;3.42;;
67274;SDS011;55463;52.324;5.122;2023-03-24T05:40:51;22.92;;;3.60;;
67274;SDS011;55463;52.324;5.122;2023-03-24T05:43:16;25.95;;;4.10;;
67274;SDS011;55463;52.324;5.122;2023-03-24T05:45:42;21.63;;;3.47;;
67274;SDS011;55463;52.324;5.122;2023-03-24T05:48:07;35.70;;;4.40;;
67274;SDS011;55463;52.324;5.122;2023-03-24T05:50:33;29.65;;;4.00;;
67274;SDS011;55463;52.324;5.122;2023-03-24T05:52:59;18.95;;;3.95;;
67274;SDS011;55463;52.324;5.122;2023-03-24T05:55:24;32.92;;;5.10;;
67274;SDS011;55463;52.324;5.122;2023-03-24T05:57:50;28.30;;;4.40;;
67274;SDS011;55463;52.324;5.122;2023-03-24T06:00:15;33.05;;;4.47;;
67274;SDS011;55463;52.324;5.122;2023-03-24T06:02:42;34.97;;;4.25;;
67274;SDS011;55463;52.324;5.122;2023-03-24T06:05:09;25.50;;;3.65;;
67274;SDS011;55463;52.324;5.122;2023-03-24T06:07:35;25.48;;;4.50;;
67274;SDS011;55463;52.324;5.122;2023-03-24T06:10:06;28.83;;;4.00;;
67274;SDS011;55463;52.324;5.122;2023-03-24T06:12:34;28.38;;;3.80;;
67274;SDS011;55463;52.324;5.122;2023-03-24T06:14:59;25.95;;;4.95;;
67274;SDS011;55463;52.324;5.122;2023-03-24T06:17:25;36.17;;;4.30;;
67274;SDS011;55463;52.324;5.122;2023-03-24T06:19:53;20.05;;;3.58;;
67274;SDS011;55463;52.324;5.122;2023-03-24T06:22:27;34.15;;;4.30;;
67274;SDS011;55463;52.324;5.122;2023-03-24T06:24:55;34.20;;;4.15;;
67274;SDS011;55463;52.324;5.122;2023-03-24T06:27:20;29.63;;;4.93;;
67274;SDS011;55463;52.324;5.122;2023-03-24T06:29:49;24.75;;;4.07;;
67274;SDS011;55463;52.324;5.122;2023-03-24T06:32:17;24.70;;;3.72;;
67274;SDS011;55463;52.324;5.122;2023-03-24T06:34:43;30.98;;;3.95;;
67274;SDS011;55463;52.324;5.122;2023-03-24T06:37:09;32.08;;;4.97;;
67274;SDS011;55463;52.324;5.122;2023-03-24T06:39:34;25.08;;;5.18;;
67274;SDS011;55463;52.324;5.122;2023-03-24T06:41:59;27.08;;;4.15;;
67274;SDS011;55463;52.324;5.122;2023-03-24T06:44:25;31.30;;;4.53;;
67274;SDS011;55463;52.324;5.122;2023-03-24T06:46:51;25.17;;;4.53;;
67274;SDS011;55463;52.324;5.122;2023-03-24T06:49:16;21.52;;;2.97;;
67274;SDS011;55463;52.324;5.122;2023-03-24T06:51:41;33.13;;;4.90;;
67274;SDS011;55463;52.324;5.122;2023-03-24T06:54:07;34.55;;;4.70;;
67274;SDS011;55463;52.324;5.122;2023-03-24T06:56:32;22.45;;;3.90;;
67274;SDS011;55463;52.324;5.122;2023-03-24T06:58:58;27.50;;;4.35;;
67274;SDS011;55463;52.324;5.122;2023-03-24T07:01:24;27.90;;;4.72;;
67274;SDS011;55463;52.324;5.122;2023-03-24T07:03:50;19.55;;;3.83;;
67274;SDS011;55463;52.324;5.122;2023-03-24T07:06:15;20.40;;;4.38;;
67274;SDS011;55463;52.324;5.122;2023-03-24T07:08:42;25.98;;;4.25;;
67274;SDS011;55463;52.324;5.122;2023-03-24T07:11:08;32.10;;;4.80;;
67274;SDS011;55463;52.324;5.122;2023-03-24T07:13:34;23.15;;;3.63;;
67274;SDS011;55463;52.324;5.122;2023-03-24T07:16:00;25.67;;;4.30;;
67274;SDS011;55463;52.324;5.122;2023-03-24T07:18:25;26.70;;;4.68;;
67274;SDS011;55463;52.324;5.122;2023-03-24T07:20:51;26.85;;;4.03;;
67274;SDS011;55463;52.324;5.122;2023-03-24T07:23:16;26.73;;;4.20;;
67274;SDS011;55463;52.324;5.122;2023-03-24T07:25:45;26.80;;;4.03;;
67274;SDS011;55463;52.324;5.122;2023-03-24T07:28:10;22.15;;;3.95;;
67274;SDS011;55463;52.324;5.122;2023-03-24T07:30:35;23.83;;;3.88;;
67274;SDS011;55463;52.324;5.122;2023-03-24T07:33:02;33.60;;;4.15;;
67274;SDS011;55463;52.324;5.122;2023-03-24T07:35:28;30.38;;;3.80;;
67274;SDS011;55463;52.324;5.122;2023-03-24T07:37:58;29.75;;;3.97;;
67274;SDS011;55463;52.324;5.122;2023-03-24T07:40:25;35.05;;;4.78;;
67274;SDS011;55463;52.324;5.122;2023-03-24T07:42:50;29.60;;;5.50;;
67274;SDS011;55463;52.324;5.122;2023-03-24T07:45:16;19.98;;;3.88;;
67274;SDS011;55463;52.324;5.122;2023-03-24T07:47:42;28.52;;;4.63;;
67274;SDS011;55463;52.324;5.122;2023-03-24T07:50:10;25.90;;;4.32;;
67274;SDS011;55463;52.324;5.122;2023-03-24T07:52:37;24.33;;;3.90;;
67274;SDS011;55463;52.324;5.122;2023-03-24T07:55:04;30.90;;;4.45;;
67274;SDS011;55463;52.324;5.122;2023-03-24T07:57:35;23.63;;;3.55;;
67274;SDS011;55463;52.324;5.122;2023-03-24T08:00:06;21.85;;;3.63;;
67274;SDS011;55463;52.324;5.122;2023-03-24T08:02:39;15.77;;;2.97;;
67274;SDS011;55463;52.324;5.122;2023-03-24T08:05:04;29.33;;;4.63;;
67274;SDS011;55463;52.324;5.122;2023-03-24T08:07:30;25.80;;;3.65;;
67274;SDS011;55463;52.324;5.122;2023-03-24T08:09:55;20.13;;;3.90;;
67274;SDS011;55463;52.324;5.122;2023-03-24T08:12:20;24.17;;;4.07;;
67274;SDS011;55463;52.324;5.122;2023-03-24T08:14:46;25.63;;;4.30;;
67274;SDS011;55463;52.324;5.122;2023-03-24T08:17:11;28.23;;;4.32;;
67274;SDS011;55463;52.324;5.122;2023-03-24T08:19:37;25.55;;;4.50;;
67274;SDS011;55463;52.324;5.122;2023-03-24T08:22:02;18.38;;;3.63;;
67274;SDS011;55463;52.324;5.122;2023-03-24T08:24:28;21.38;;;4.05;;
67274;SDS011;55463;52.324;5.122;2023-03-24T08:26:53;23.00;;;4.13;;
67274;SDS011;55463;52.324;5.122;2023-03-24T08:29:22;21.75;;;3.97;;
67274;SDS011;55463;52.324;5.122;2023-03-24T08:31:48;21.05;;;3.95;;
67274;SDS011;55463;52.324;5.122;2023-03-24T08:34:13;20.02;;;3.28;;
67274;SDS011;55463;52.324;5.122;2023-03-24T08:36:38;26.13;;;3.90;;
67274;SDS011;55463;52.324;5.122;2023-03-24T08:39:05;25.27;;;3.97;;
67274;SDS011;55463;52.324;5.122;2023-03-24T08:41:34;19.60;;;4.38;;
67274;SDS011;55463;52.324;5.122;2023-03-24T08:44:00;23.65;;;4.22;;
67274;SDS011;55463;52.324;5.122;2023-03-24T08:46:31;24.50;;;4.45;;
67274;SDS011;55463;52.324;5.122;2023-03-24T08:48:57;23.48;;;4.13;;
67274;SDS011;55463;52.324;5.122;2023-03-24T08:51:26;16.13;;;2.88;;
67274;SDS011;55463;52.324;5.122;2023-03-24T08:53:52;19.85;;;2.95;;
67274;SDS011;55463;52.324;5.122;2023-03-24T08:56:18;28.67;;;4.22;;
67274;SDS011;55463;52.324;5.122;2023-03-24T08:58:44;20.15;;;4.03;;
67274;SDS011;55463;52.324;5.122;2023-03-24T09:01:12;20.40;;;3.38;;
67274;SDS011;55463;52.324;5.122;2023-03-24T09:03:38;15.38;;;3.00;;
67274;SDS011;55463;52.324;5.122;2023-03-24T09:06:03;23.60;;;3.45;;
67274;SDS011;55463;52.324;5.122;2023-03-24T09:08:30;18.27;;;3.28;;
67274;SDS011;55463;52.324;5.122;2023-03-24T09:10:59;16.10;;;3.03;;
67274;SDS011;55463;52.324;5.122;2023-03-24T09:13:24;17.00;;;3.22;;
67274;SDS011;55463;52.324;5.122;2023-03-24T09:15:51;22.85;;;3.65;;
67274;SDS011;55463;52.324;5.122;2023-03-24T09:18:19;21.52;;;3.63;;
67274;SDS011;55463;52.324;5.122;2023-03-24T09:20:45;16.90;;;3.10;;
67274;SDS011;55463;52.324;5.122;2023-03-24T09:23:11;18.80;;;2.92;;
67274;SDS011;55463;52.324;5.122;2023-03-24T09:25:37;22.13;;;3.38;;
67274;SDS011;55463;52.324;5.122;2023-03-24T09:28:03;16.02;;;3.03;;
67274;SDS011;55463;52.324;5.122;2023-03-24T09:30:30;23.63;;;4.07;;
67274;SDS011;55463;52.324;5.122;2023-03-24T09:32:55;17.30;;;3.40;;
67274;SDS011;55463;52.324;5.122;2023-03-24T09:35:24;16.77;;;3.38;;
67274;SDS011;55463;52.324;5.122;2023-03-24T09:37:51;18.00;;;3.08;;
67274;SDS011;55463;52.324;5.122;2023-03-24T09:40:18;17.23;;;3.05;;
67274;SDS011;55463;52.324;5.122;2023-03-24T09:42:50;14.98;;;3.25;;
67274;SDS011;55463;52.324;5.122;2023-03-24T09:45:23;14.05;;;3.17;;
67274;SDS011;55463;52.324;5.122;2023-03-24T09:55:56;13.88;;;3.28;;
67274;SDS011;55463;52.324;5.122;2023-03-24T09:58:26;11.90;;;2.92;;
67274;SDS011;55463;52.324;5.122;2023-03-24T10:00:53;16.77;;;2.90;;
67274;SDS011;55463;52.324;5.122;2023-03-24T10:03:19;16.25;;;3.17;;
67274;SDS011;55463;52.324;5.122;2023-03-24T10:08:50;18.20;;;3.25;;
67274;SDS011;55463;52.324;5.122;2023-03-24T10:11:30;11.20;;;2.80;;
67274;SDS011;55463;52.324;5.122;2023-03-24T10:14:10;16.35;;;3.53;;
67274;SDS011;55463;52.324;5.122;2023-03-24T10:19:47;20.60;;;3.40;;
67274;SDS011;55463;52.324;5.122;2023-03-24T10:24:53;16.38;;;3.20;;
67274;SDS011;55463;52.324;5.122;2023-03-24T10:27:27;15.70;;;3.95;;
67274;SDS011;55463;52.324;5.122;2023-03-24T10:30:29;12.48;;;2.80;;
67274;SDS011;55463;52.324;5.122;2023-03-24T10:32:57;21.80;;;3.55;;
67274;SDS011;55463;52.324;5.122;2023-03-24T10:35:30;19.52;;;3.13;;
67274;SDS011;55463;52.324;5.122;2023-03-24T10:38:00;13.18;;;3.78;;
67274;SDS011;55463;52.324;5.122;2023-03-24T10:40:31;19.00;;;4.10;;
67274;SDS011;55463;52.324;5.122;2023-03-24T10:42:57;19.55;;;3.80;;
67274;SDS011;55463;52.324;5.122;2023-03-24T10:45:27;16.95;;;2.90;;
67274;SDS011;55463;52.324;5.122;2023-03-24T10:47:56;14.25;;;3.42;;
67274;SDS011;55463;52.324;5.122;2023-03-24T10:50:25;13.57;;;3.25;;
67274;SDS011;55463;52.324;5.122;2023-03-24T10:52:53;21.27;;;3.72;;
67274;SDS011;55463;52.324;5.122;2023-03-24T10:55:20;16.35;;;3.35;;
67274;SDS011;55463;52.324;5.122;2023-03-24T10:57:49;15.23;;;3.42;;
67274;SDS011;55463;52.324;5.122;2023-03-24T11:03:25;15.63;;;3.10;;
67274;SDS011;55463;52.324;5.122;2023-03-24T11:05:47;17.95;;;3.17;;
67274;SDS011;55463;52.324;5.122;2023-03-24T11:10:41;15.05;;;3.13;;
67274;SDS011;55463;52.324;5.122;2023-03-24T11:16:03;15.18;;;3.28;;
67274;SDS011;55463;52.324;5.122;2023-03-24T11:18:29;16.67;;;3.50;;
67274;SDS011;55463;52.324;5.122;2023-03-24T11:20:56;14.75;;;3.33;;
67274;SDS011;55463;52.324;5.122;2023-03-24T11:23:31;15.10;;;3.85;;
67274;SDS011;55463;52.324;5.122;2023-03-24T11:26:10;13.90;;;2.92;;
67274;SDS011;55463;52.324;5.122;2023-03-24T11:28:44;14.68;;;3.05;;
67274;SDS011;55463;52.324;5.122;2023-03-24T11:31:12;13.73;;;3.08;;
67274;SDS011;55463;52.324;5.122;2023-03-24T11:39:14;15.30;;;3.17;;
67274;SDS011;55463;52.324;5.122;2023-03-24T11:41:49;16.05;;;3.40;;
67274;SDS011;55463;52.324;5.122;2023-03-24T11:44:43;16.42;;;3.15;;
67274;SDS011;55463;52.324;5.122;2023-03-24T11:49:54;12.95;;;2.83;;
67274;SDS011;55463;52.324;5.122;2023-03-24T11:52:37;12.75;;;2.92;;
67274;SDS011;55463;52.324;5.122;2023-03-24T11:55:43;16.45;;;3.92;;
67274;SDS011;55463;52.324;5.122;2023-03-24T11:58:15;11.35;;;2.80;;
67274;SDS011;55463;52.324;5.122;2023-03-24T12:03:58;13.27;;;3.58;;
67274;SDS011;55463;52.324;5.122;2023-03-24T12:24:30;17.02;;;2.40;;
67274;SDS011;55463;52.324;5.122;2023-03-24T12:27:18;12.57;;;2.30;;
67274;SDS011;55463;52.324;5.122;2023-03-24T12:30:00;10.18;;;2.25;;
67274;SDS011;55463;52.324;5.122;2023-03-24T12:38:24;8.82;;;2.17;;
67274;SDS011;55463;52.324;5.122;2023-03-24T12:41:16;8.63;;;1.98;;
67274;SDS011;55463;52.324;5.122;2023-03-24T12:43:47;8.32;;;1.88;;
67274;SDS011;55463;52.324;5.122;2023-03-24T12:46:32;8.15;;;2.40;;
67274;SDS011;55463;52.324;5.122;2023-03-24T12:54:57;10.07;;;2.50;;
67274;SDS011;55463;52.324;5.122;2023-03-24T12:57:34;12.48;;;2.50;;
67274;SDS011;55463;52.324;5.122;2023-03-24T13:00:10;7.50;;;2.05;;
67274;SDS011;55463;52.324;5.122;2023-03-24T13:02:44;9.85;;;2.40;;
67274;SDS011;55463;52.324;5.122;2023-03-24T13:05:19;13.40;;;3.22;;
67274;SDS011;55463;52.324;5.122;2023-03-24T13:07:48;14.45;;;3.00;;
67274;SDS011;55463;52.324;5.122;2023-03-24T13:10:23;10.45;;;2.53;;
67274;SDS011;55463;52.324;5.122;2023-03-24T13:12:52;14.32;;;2.50;;
67274;SDS011;55463;52.324;5.122;2023-03-24T13:15:24;14.88;;;2.70;;
67274;SDS011;55463;52.324;5.122;2023-03-24T13:31:38;10.85;;;2.75;;
67274;SDS011;55463;52.324;5.122;2023-03-24T13:34:09;12.02;;;2.72;;
67274;SDS011;55463;52.324;5.122;2023-03-24T13:43:08;12.13;;;2.50;;
67274;SDS011;55463;52.324;5.122;2023-03-24T13:45:43;14.27;;;3.08;;
67274;SDS011;55463;52.324;5.122;2023-03-24T13:48:18;17.75;;;3.35;;
67274;SDS011;55463;52.324;5.122;2023-03-24T13:51:00;16.60;;;2.80;;
67274;SDS011;55463;52.324;5.122;2023-03-24T13:53:44;13.27;;;2.63;;
67274;SDS011;55463;52.324;5.122;2023-03-24T13:56:25;13.88;;;2.67;;
67274;SDS011;55463;52.324;5.122;2023-03-24T14:01:31;13.15;;;2.50;;
67274;SDS011;55463;52.324;5.122;2023-03-24T14:09:23;14.35;;;2.97;;
67274;SDS011;55463;52.324;5.122;2023-03-24T14:14:23;11.25;;;2.28;;
67274;SDS011;55463;52.324;5.122;2023-03-24T14:19:25;14.60;;;2.25;;
67274;SDS011;55463;52.324;5.122;2023-03-24T14:22:02;7.05;;;1.85;;
67274;SDS011;55463;52.324;5.122;2023-03-24T14:24:28;8.05;;;1.83;;
67274;SDS011;55463;52.324;5.122;2023-03-24T14:26:57;7.25;;;2.30;;
67274;SDS011;55463;52.324;5.122;2023-03-24T14:29:39;7.43;;;1.65;;
67274;SDS011;55463;52.324;5.122;2023-03-24T14:32:13;6.45;;;1.40;;
67274;SDS011;55463;52.324;5.122;2023-03-24T14:34:50;5.80;;;1.58;;
67274;SDS011;55463;52.324;5.122;2023-03-24T14:37:18;8.05;;;2.08;;
67274;SDS011;55463;52.324;5.122;2023-03-24T14:39:47;8.85;;;1.85;;
67274;SDS011;55463;52.324;5.122;2023-03-24T14:48:15;12.73;;;1.75;;
67274;SDS011;55463;52.324;5.122;2023-03-24T14:50:47;10.40;;;2.30;;
67274;SDS011;55463;52.324;5.122;2023-03-24T14:53:16;5.75;;;1.92;;
67274;SDS011;55463;52.324;5.122;2023-03-24T14:55:53;9.82;;;2.63;;
67274;SDS011;55463;52.324;5.122;2023-03-24T14:58:32;10.55;;;2.35;;
67274;SDS011;55463;52.324;5.122;2023-03-24T15:01:03;10.00;;;2.17;;
67274;SDS011;55463;52.324;5.122;2023-03-24T15:06:24;8.07;;;2.17;;
67274;SDS011;55463;52.324;5.122;2023-03-24T15:08:57;13.50;;;2.35;;
67274;SDS011;55463;52.324;5.122;2023-03-24T15:11:28;8.38;;;1.60;;
67274;SDS011;55463;52.324;5.122;2023-03-24T15:16:53;9.10;;;2.60;;
67274;SDS011;55463;52.324;5.122;2023-03-24T15:19:25;11.80;;;2.85;;
67274;SDS011;55463;52.324;5.122;2023-03-24T15:21:59;10.30;;;2.38;;
67274;SDS011;55463;52.324;5.122;2023-03-24T15:24:28;9.77;;;2.35;;
67274;SDS011;55463;52.324;5.122;2023-03-24T15:29:30;13.85;;;2.75;;
67274;SDS011;55463;52.324;5.122;2023-03-24T15:31:56;13.55;;;2.47;;
67274;SDS011;55463;52.324;5.122;2023-03-24T15:36:52;10.60;;;2.42;;
67274;SDS011;55463;52.324;5.122;2023-03-24T15:39:20;11.00;;;2.38;;
67274;SDS011;55463;52.324;5.122;2023-03-24T15:41:53;7.78;;;1.95;;
67274;SDS011;55463;52.324;5.122;2023-03-24T15:44:20;8.63;;;2.70;;
67274;SDS011;55463;52.324;5.122;2023-03-24T15:46:49;11.97;;;1.90;;
67274;SDS011;55463;52.324;5.122;2023-03-24T15:49:20;10.77;;;2.55;;
67274;SDS011;55463;52.324;5.122;2023-03-24T15:51:54;10.60;;;2.13;;
67274;SDS011;55463;52.324;5.122;2023-03-24T15:54:24;9.30;;;2.17;;
67274;SDS011;55463;52.324;5.122;2023-03-24T15:57:00;9.20;;;2.40;;
67274;SDS011;55463;52.324;5.122;2023-03-24T15:59:40;14.32;;;2.53;;
67274;SDS011;55463;52.324;5.122;2023-03-24T16:02:14;15.63;;;2.50;;
67274;SDS011;55463;52.324;5.122;2023-03-24T16:04:46;14.55;;;2.60;;
67274;SDS011;55463;52.324;5.122;2023-03-24T16:07:22;10.75;;;2.35;;
67274;SDS011;55463;52.324;5.122;2023-03-24T16:09:56;14.43;;;2.58;;
67274;SDS011;55463;52.324;5.122;2023-03-24T16:12:29;12.80;;;2.45;;
67274;SDS011;55463;52.324;5.122;2023-03-24T16:14:56;11.40;;;2.28;;
67274;SDS011;55463;52.324;5.122;2023-03-24T16:17:21;14.55;;;2.72;;
67274;SDS011;55463;52.324;5.122;2023-03-24T16:19:46;11.02;;;2.33;;
67274;SDS011;55463;52.324;5.122;2023-03-24T16:22:12;15.68;;;2.22;;
67274;SDS011;55463;52.324;5.122;2023-03-24T16:24:37;13.73;;;2.20;;
67274;SDS011;55463;52.324;5.122;2023-03-24T16:27:03;8.35;;;2.00;;
67274;SDS011;55463;52.324;5.122;2023-03-24T16:29:28;14.38;;;3.35;;
67274;SDS011;55463;52.324;5.122;2023-03-24T16:31:54;8.45;;;1.98;;
67274;SDS011;55463;52.324;5.122;2023-03-24T16:34:21;9.25;;;2.17;;
67274;SDS011;55463;52.324;5.122;2023-03-24T16:36:48;10.70;;;2.90;;
67274;SDS011;55463;52.324;5.122;2023-03-24T16:39:21;12.30;;;2.70;;
67274;SDS011;55463;52.324;5.122;2023-03-24T16:41:48;11.00;;;2.22;;
67274;SDS011;55463;52.324;5.122;2023-03-24T16:44:16;9.55;;;1.95;;
67274;SDS011;55463;52.324;5.122;2023-03-24T16:46:44;13.82;;;2.33;;
67274;SDS011;55463;52.324;5.122;2023-03-24T16:49:11;11.80;;;2.42;;
67274;SDS011;55463;52.324;5.122;2023-03-24T16:51:39;17.90;;;2.30;;
67274;SDS011;55463;52.324;5.122;2023-03-24T16:54:05;11.45;;;2.67;;
67274;SDS011;55463;52.324;5.122;2023-03-24T16:56:31;10.18;;;2.30;;
67274;SDS011;55463;52.324;5.122;2023-03-24T16:58:57;11.25;;;2.22;;
67274;SDS011;55463;52.324;5.122;2023-03-24T17:01:36;11.63;;;2.60;;
67274;SDS011;55463;52.324;5.122;2023-03-24T17:04:11;15.05;;;2.35;;
67274;SDS011;55463;52.324;5.122;2023-03-24T17:06:45;13.15;;;2.40;;
67274;SDS011;55463;52.324;5.122;2023-03-24T17:11:41;13.50;;;2.30;;
67274;SDS011;55463;52.324;5.122;2023-03-24T17:14:08;11.32;;;2.50;;
67274;SDS011;55463;52.324;5.122;2023-03-24T17:16:37;15.27;;;2.30;;
67274;SDS011;55463;52.324;5.122;2023-03-24T17:19:08;12.05;;;2.35;;
67274;SDS011;55463;52.324;5.122;2023-03-24T17:21:37;15.93;;;2.47;;
67274;SDS011;55463;52.324;5.122;2023-03-24T17:24:08;14.77;;;2.88;;
67274;SDS011;55463;52.324;5.122;2023-03-24T17:26:37;11.75;;;2.83;;
67274;SDS011;55463;52.324;5.122;2023-03-24T17:29:03;12.73;;;2.75;;
67274;SDS011;55463;52.324;5.122;2023-03-24T17:31:32;12.35;;;2.80;;
67274;SDS011;55463;52.324;5.122;2023-03-24T17:33:57;16.35;;;2.63;;
67274;SDS011;55463;52.324;5.122;2023-03-24T17:36:23;17.92;;;2.75;;
67274;SDS011;55463;52.324;5.122;2023-03-24T17:38:48;14.02;;;2.55;;
67274;SDS011;55463;52.324;5.122;2023-03-24T17:41:14;9.25;;;2.17;;
67274;SDS011;55463;52.324;5.122;2023-03-24T17:43:40;11.70;;;2.20;;
67274;SDS011;55463;52.324;5.122;2023-03-24T17:46:05;14.50;;;2.42;;
67274;SDS011;55463;52.324;5.122;2023-03-24T17:48:31;7.05;;;2.22;;
67274;SDS011;55463;52.324;5.122;2023-03-24T17:50:57;14.48;;;2.92;;
67274;SDS011;55463;52.324;5.122;2023-03-24T17:53:22;10.00;;;1.73;;
67274;SDS011;55463;52.324;5.122;2023-03-24T17:55:52;10.65;;;2.00;;